sensor_id;sensor_type;location;lat;lon;timestamp;temperature;humidity
76211;DHT22;65003;49.518;11.280;2023-07-20T00:01:20;18.30;99.90
76211;DHT22;65003;49.518;11.280;2023-07-20T00:03:46;18.30;99.90
76211;DHT22;65003;49.518;11.280;2023-07-20T00:06:13;18.20;99.90
76211;DHT22;65003;49.518;11.280;2023-07-20T00:08:40;18.20;99.90
76211;DHT22;65003;49.518;11.280;2023-07-20T00:11:06;18.20;99.90
76211;DHT22;65003;49.518;11.280;2023-07-20T00:13:33;18.10;99.90
76211;DHT22;65003;49.518;11.280;2023-07-20T00:18:26;18.00;99.90
76211;DHT22;65003;49.518;11.280;2023-07-20T00:20:53;18.00;99.90
76211;DHT22;65003;49.518;11.280;2023-07-20T00:23:19;18.00;99.90
76211;DHT22;65003;49.518;11.280;2023-07-20T00:25:46;18.00;99.90
76211;DHT22;65003;49.518;11.280;2023-07-20T00:28:12;18.00;99.90
76211;DHT22;65003;49.518;11.280;2023-07-20T00:30:39;18.10;99.90
76211;DHT22;65003;49.518;11.280;2023-07-20T00:33:09;18.10;99.90
76211;DHT22;65003;49.518;11.280;2023-07-20T00:35:32;18.00;99.90
76211;DHT22;65003;49.518;11.280;2023-07-20T00:37:59;18.00;99.90
76211;DHT22;65003;49.518;11.280;2023-07-20T00:40:25;18.00;99.90
76211;DHT22;65003;49.518;11.280;2023-07-20T00:42:52;17.90;99.90
76211;DHT22;65003;49.518;11.280;2023-07-20T00:45:19;17.80;99.90
76211;DHT22;65003;49.518;11.280;2023-07-20T00:47:45;17.80;99.90
76211;DHT22;65003;49.518;11.280;2023-07-20T00:50:12;17.80;99.90
76211;DHT22;65003;49.518;11.280;2023-07-20T00:52:38;17.80;99.90
76211;DHT22;65003;49.518;11.280;2023-07-20T00:55:06;17.80;99.90
76211;DHT22;65003;49.518;11.280;2023-07-20T00:57:32;17.80;99.90
76211;DHT22;65003;49.518;11.280;2023-07-20T00:59:59;17.90;99.90
76211;DHT22;65003;49.518;11.280;2023-07-20T01:02:25;17.90;99.90
76211;DHT22;65003;49.518;11.280;2023-07-20T01:04:52;18.00;99.90
76211;DHT22;65003;49.518;11.280;2023-07-20T01:07:27;18.00;99.90
76211;DHT22;65003;49.518;11.280;2023-07-20T01:10:01;18.00;99.90
76211;DHT22;65003;49.518;11.280;2023-07-20T01:12:27;18.00;99.90
76211;DHT22;65003;49.518;11.280;2023-07-20T01:14:53;17.10;99.90
76211;DHT22;65003;49.518;11.280;2023-07-20T01:17:19;18.10;99.90
76211;DHT22;65003;49.518;11.280;2023-07-20T01:19:46;18.10;99.90
76211;DHT22;65003;49.518;11.280;2023-07-20T01:22:21;18.20;99.90
76211;DHT22;65003;49.518;11.280;2023-07-20T01:28:05;18.20;99.90
76211;DHT22;65003;49.518;11.280;2023-07-20T01:30:35;18.20;99.90
76211;DHT22;65003;49.518;11.280;2023-07-20T01:32:58;18.10;99.90
76211;DHT22;65003;49.518;11.280;2023-07-20T01:35:26;18.00;99.90
76211;DHT22;65003;49.518;11.280;2023-07-20T01:37:51;17.80;99.90
76211;DHT22;65003;49.518;11.280;2023-07-20T01:40:19;17.80;99.90
76211;DHT22;65003;49.518;11.280;2023-07-20T01:42:45;17.80;99.90
76211;DHT22;65003;49.518;11.280;2023-07-20T01:45:12;17.70;99.90
76211;DHT22;65003;49.518;11.280;2023-07-20T01:47:38;17.70;99.90
76211;DHT22;65003;49.518;11.280;2023-07-20T01:50:06;17.70;99.90
76211;DHT22;65003;49.518;11.280;2023-07-20T01:52:33;17.70;99.90
76211;DHT22;65003;49.518;11.280;2023-07-20T01:54:59;17.70;99.90
76211;DHT22;65003;49.518;11.280;2023-07-20T01:57:26;17.70;99.90
76211;DHT22;65003;49.518;11.280;2023-07-20T01:59:52;17.70;99.90
76211;DHT22;65003;49.518;11.280;2023-07-20T02:02:19;17.60;99.90
76211;DHT22;65003;49.518;11.280;2023-07-20T02:04:46;17.40;99.90
76211;DHT22;65003;49.518;11.280;2023-07-20T02:07:12;17.50;99.90
76211;DHT22;65003;49.518;11.280;2023-07-20T02:09:39;17.50;99.90
76211;DHT22;65003;49.518;11.280;2023-07-20T02:12:06;17.50;99.90
76211;DHT22;65003;49.518;11.280;2023-07-20T02:14:32;17.60;99.90
76211;DHT22;65003;49.518;11.280;2023-07-20T02:16:59;17.60;99.90
76211;DHT22;65003;49.518;11.280;2023-07-20T02:19:26;17.70;99.90
76211;DHT22;65003;49.518;11.280;2023-07-20T02:21:53;17.80;99.90
76211;DHT22;65003;49.518;11.280;2023-07-20T02:24:19;17.70;99.90
76211;DHT22;65003;49.518;11.280;2023-07-20T02:26:46;17.60;99.90
76211;DHT22;65003;49.518;11.280;2023-07-20T02:29:12;17.50;99.90
76211;DHT22;65003;49.518;11.280;2023-07-20T02:31:39;17.40;99.90
76211;DHT22;65003;49.518;11.280;2023-07-20T02:34:06;17.40;99.90
76211;DHT22;65003;49.518;11.280;2023-07-20T02:36:33;17.40;99.90
76211;DHT22;65003;49.518;11.280;2023-07-20T02:39:00;17.30;99.90
76211;DHT22;65003;49.518;11.280;2023-07-20T02:41:27;17.30;99.90
76211;DHT22;65003;49.518;11.280;2023-07-20T02:43:53;17.20;99.90
76211;DHT22;65003;49.518;11.280;2023-07-20T02:46:20;17.20;99.90
76211;DHT22;65003;49.518;11.280;2023-07-20T02:48:47;17.10;99.90
76211;DHT22;65003;49.518;11.280;2023-07-20T02:51:13;17.10;99.90
76211;DHT22;65003;49.518;11.280;2023-07-20T02:53:40;17.10;99.90
76211;DHT22;65003;49.518;11.280;2023-07-20T02:56:07;17.10;99.90
76211;DHT22;65003;49.518;11.280;2023-07-20T02:58:34;17.20;99.90
76211;DHT22;65003;49.518;11.280;2023-07-20T03:01:00;17.20;99.90
76211;DHT22;65003;49.518;11.280;2023-07-20T03:03:26;17.30;99.90
76211;DHT22;65003;49.518;11.280;2023-07-20T03:05:53;17.20;99.90
76211;DHT22;65003;49.518;11.280;2023-07-20T03:08:20;17.30;99.90
76211;DHT22;65003;49.518;11.280;2023-07-20T03:10:47;17.20;99.90
76211;DHT22;65003;49.518;11.280;2023-07-20T03:13:13;17.20;99.90
76211;DHT22;65003;49.518;11.280;2023-07-20T03:15:40;17.10;99.90
76211;DHT22;65003;49.518;11.280;2023-07-20T03:18:06;17.00;99.90
76211;DHT22;65003;49.518;11.280;2023-07-20T03:20:34;17.00;99.90
76211;DHT22;65003;49.518;11.280;2023-07-20T03:23:00;17.00;99.90
76211;DHT22;65003;49.518;11.280;2023-07-20T03:25:27;17.00;99.90
76211;DHT22;65003;49.518;11.280;2023-07-20T03:27:54;17.00;99.90
76211;DHT22;65003;49.518;11.280;2023-07-20T03:30:20;17.10;99.90
76211;DHT22;65003;49.518;11.280;2023-07-20T03:32:47;17.10;99.90
76211;DHT22;65003;49.518;11.280;2023-07-20T03:35:13;17.20;99.90
76211;DHT22;65003;49.518;11.280;2023-07-20T03:37:40;17.20;99.90
76211;DHT22;65003;49.518;11.280;2023-07-20T03:40:07;17.30;99.90
76211;DHT22;65003;49.518;11.280;2023-07-20T03:42:34;17.30;99.90
76211;DHT22;65003;49.518;11.280;2023-07-20T03:45:01;17.30;99.90
76211;DHT22;65003;49.518;11.280;2023-07-20T03:47:27;17.20;99.90
76211;DHT22;65003;49.518;11.280;2023-07-20T03:49:54;17.10;99.90
76211;DHT22;65003;49.518;11.280;2023-07-20T03:52:20;17.00;99.90
76211;DHT22;65003;49.518;11.280;2023-07-20T03:54:47;16.90;99.90
76211;DHT22;65003;49.518;11.280;2023-07-20T03:57:14;16.90;99.90
76211;DHT22;65003;49.518;11.280;2023-07-20T03:59:44;16.80;99.90
76211;DHT22;65003;49.518;11.280;2023-07-20T04:02:07;16.80;99.90
76211;DHT22;65003;49.518;11.280;2023-07-20T04:04:33;16.80;99.90
76211;DHT22;65003;49.518;11.280;2023-07-20T04:07:00;16.80;99.90
76211;DHT22;65003;49.518;11.280;2023-07-20T04:09:27;16.80;99.90
76211;DHT22;65003;49.518;11.280;2023-07-20T04:11:53;16.80;99.90
76211;DHT22;65003;49.518;11.280;2023-07-20T04:14:20;16.80;99.90
76211;DHT22;65003;49.518;11.280;2023-07-20T04:16:47;16.80;99.90
76211;DHT22;65003;49.518;11.280;2023-07-20T04:19:13;16.90;99.90
76211;DHT22;65003;49.518;11.280;2023-07-20T04:21:40;16.90;99.90
76211;DHT22;65003;49.518;11.280;2023-07-20T04:24:07;16.90;99.90
76211;DHT22;65003;49.518;11.280;2023-07-20T04:26:34;17.00;99.90
76211;DHT22;65003;49.518;11.280;2023-07-20T04:29:01;17.00;99.90
76211;DHT22;65003;49.518;11.280;2023-07-20T04:31:27;17.10;99.90
76211;DHT22;65003;49.518;11.280;2023-07-20T04:33:54;17.10;99.90
76211;DHT22;65003;49.518;11.280;2023-07-20T04:36:21;17.20;99.90
76211;DHT22;65003;49.518;11.280;2023-07-20T04:38:47;17.30;99.90
76211;DHT22;65003;49.518;11.280;2023-07-20T04:41:14;17.40;99.90
76211;DHT22;65003;49.518;11.280;2023-07-20T04:43:41;17.40;99.90
76211;DHT22;65003;49.518;11.280;2023-07-20T04:46:08;17.40;99.90
76211;DHT22;65003;49.518;11.280;2023-07-20T04:48:34;17.50;99.90
76211;DHT22;65003;49.518;11.280;2023-07-20T04:51:01;17.50;99.90
76211;DHT22;65003;49.518;11.280;2023-07-20T04:53:28;17.50;99.90
76211;DHT22;65003;49.518;11.280;2023-07-20T04:55:54;17.60;99.90
76211;DHT22;65003;49.518;11.280;2023-07-20T04:58:21;17.80;99.90
76211;DHT22;65003;49.518;11.280;2023-07-20T05:00:48;17.90;99.90
76211;DHT22;65003;49.518;11.280;2023-07-20T05:03:15;18.10;99.90
76211;DHT22;65003;49.518;11.280;2023-07-20T05:05:41;18.30;99.90
76211;DHT22;65003;49.518;11.280;2023-07-20T05:08:08;18.40;99.90
76211;DHT22;65003;49.518;11.280;2023-07-20T05:10:35;18.50;99.90
76211;DHT22;65003;49.518;11.280;2023-07-20T05:13:01;18.70;99.90
76211;DHT22;65003;49.518;11.280;2023-07-20T05:15:28;18.70;99.90
76211;DHT22;65003;49.518;11.280;2023-07-20T05:17:54;18.90;99.90
76211;DHT22;65003;49.518;11.280;2023-07-20T05:20:21;19.00;99.50
76211;DHT22;65003;49.518;11.280;2023-07-20T05:22:48;19.10;99.10
76211;DHT22;65003;49.518;11.280;2023-07-20T05:25:14;19.30;98.50
76211;DHT22;65003;49.518;11.280;2023-07-20T05:27:41;19.50;97.70
76211;DHT22;65003;49.518;11.280;2023-07-20T05:30:08;19.70;97.20
76211;DHT22;65003;49.518;11.280;2023-07-20T05:32:34;19.80;96.50
76211;DHT22;65003;49.518;11.280;2023-07-20T05:35:01;20.00;95.80
76211;DHT22;65003;49.518;11.280;2023-07-20T05:37:28;20.20;94.80
76211;DHT22;65003;49.518;11.280;2023-07-20T05:39:54;20.50;97.30
76211;DHT22;65003;49.518;11.280;2023-07-20T05:42:21;20.90;94.50
76211;DHT22;65003;49.518;11.280;2023-07-20T05:44:47;21.00;98.80
76211;DHT22;65003;49.518;11.280;2023-07-20T05:47:14;21.20;91.90
76211;DHT22;65003;49.518;11.280;2023-07-20T05:49:41;21.30;91.90
76211;DHT22;65003;49.518;11.280;2023-07-20T05:52:07;21.50;91.50
76211;DHT22;65003;49.518;11.280;2023-07-20T05:54:34;21.50;91.50
76211;DHT22;65003;49.518;11.280;2023-07-20T05:57:00;21.40;91.40
76211;DHT22;65003;49.518;11.280;2023-07-20T05:59:27;21.50;91.20
76211;DHT22;65003;49.518;11.280;2023-07-20T06:01:54;21.70;90.30
76211;DHT22;65003;49.518;11.280;2023-07-20T06:04:20;21.90;90.20
76211;DHT22;65003;49.518;11.280;2023-07-20T06:06:47;22.20;86.10
76211;DHT22;65003;49.518;11.280;2023-07-20T06:09:13;22.30;86.70
76211;DHT22;65003;49.518;11.280;2023-07-20T06:11:40;22.20;86.00
76211;DHT22;65003;49.518;11.280;2023-07-20T06:14:06;22.00;87.20
76211;DHT22;65003;49.518;11.280;2023-07-20T06:16:33;21.80;86.10
76211;DHT22;65003;49.518;11.280;2023-07-20T06:19:00;21.60;86.30
76211;DHT22;65003;49.518;11.280;2023-07-20T06:21:26;21.30;86.70
76211;DHT22;65003;49.518;11.280;2023-07-20T06:23:54;21.20;86.70
76211;DHT22;65003;49.518;11.280;2023-07-20T06:26:19;21.00;87.60
76211;DHT22;65003;49.518;11.280;2023-07-20T06:28:46;20.80;88.30
76211;DHT22;65003;49.518;11.280;2023-07-20T06:31:13;20.90;88.70
76211;DHT22;65003;49.518;11.280;2023-07-20T06:33:39;21.10;88.00
76211;DHT22;65003;49.518;11.280;2023-07-20T06:36:06;21.40;88.00
76211;DHT22;65003;49.518;11.280;2023-07-20T06:38:33;22.00;87.40
76211;DHT22;65003;49.518;11.280;2023-07-20T06:40:59;22.10;85.20
76211;DHT22;65003;49.518;11.280;2023-07-20T06:43:26;22.80;82.20
76211;DHT22;65003;49.518;11.280;2023-07-20T06:48:19;24.40;78.40
76211;DHT22;65003;49.518;11.280;2023-07-20T06:50:46;24.60;74.00
76211;DHT22;65003;49.518;11.280;2023-07-20T06:53:12;24.80;72.70
76211;DHT22;65003;49.518;11.280;2023-07-20T06:55:39;24.60;71.30
76211;DHT22;65003;49.518;11.280;2023-07-20T06:58:06;24.70;72.10
76211;DHT22;65003;49.518;11.280;2023-07-20T07:00:32;25.80;66.80
76211;DHT22;65003;49.518;11.280;2023-07-20T07:02:59;26.10;66.40
76211;DHT22;65003;49.518;11.280;2023-07-20T07:05:25;27.10;59.90
76211;DHT22;65003;49.518;11.280;2023-07-20T07:07:52;27.20;58.90
76211;DHT22;65003;49.518;11.280;2023-07-20T07:10:18;27.60;59.80
76211;DHT22;65003;49.518;11.280;2023-07-20T07:12:45;27.80;57.10
76211;DHT22;65003;49.518;11.280;2023-07-20T07:15:12;28.10;57.30
76211;DHT22;65003;49.518;11.280;2023-07-20T07:17:38;28.00;55.50
76211;DHT22;65003;49.518;11.280;2023-07-20T07:20:06;27.80;57.60
76211;DHT22;65003;49.518;11.280;2023-07-20T07:22:33;27.80;56.30
76211;DHT22;65003;49.518;11.280;2023-07-20T07:24:59;26.00;58.20
76211;DHT22;65003;49.518;11.280;2023-07-20T07:27:26;25.90;58.70
76211;DHT22;65003;49.518;11.280;2023-07-20T07:29:52;24.50;64.10
76211;DHT22;65003;49.518;11.280;2023-07-20T07:32:19;24.30;65.20
76211;DHT22;65003;49.518;11.280;2023-07-20T07:34:46;24.20;67.00
76211;DHT22;65003;49.518;11.280;2023-07-20T07:37:13;25.20;64.30
76211;DHT22;65003;49.518;11.280;2023-07-20T07:39:39;26.40;61.40
76211;DHT22;65003;49.518;11.280;2023-07-20T07:42:06;28.40;54.90
76211;DHT22;65003;49.518;11.280;2023-07-20T07:44:33;28.80;54.30
76211;DHT22;65003;49.518;11.280;2023-07-20T07:47:00;29.50;52.70
76211;DHT22;65003;49.518;11.280;2023-07-20T07:49:27;29.80;49.50
76211;DHT22;65003;49.518;11.280;2023-07-20T07:51:54;29.40;49.90
76211;DHT22;65003;49.518;11.280;2023-07-20T07:54:20;28.50;51.20
76211;DHT22;65003;49.518;11.280;2023-07-20T07:56:47;27.50;53.70
76211;DHT22;65003;49.518;11.280;2023-07-20T07:59:14;26.60;56.50
76211;DHT22;65003;49.518;11.280;2023-07-20T08:01:40;27.00;55.20
76211;DHT22;65003;49.518;11.280;2023-07-20T08:04:07;27.70;52.40
76211;DHT22;65003;49.518;11.280;2023-07-20T08:06:33;28.70;50.60
76211;DHT22;65003;49.518;11.280;2023-07-20T08:09:00;29.40;49.00
76211;DHT22;65003;49.518;11.280;2023-07-20T08:11:27;29.30;47.80
76211;DHT22;65003;49.518;11.280;2023-07-20T08:13:54;28.30;47.70
76211;DHT22;65003;49.518;11.280;2023-07-20T08:16:21;27.70;49.00
76211;DHT22;65003;49.518;11.280;2023-07-20T08:18:47;27.80;48.10
76211;DHT22;65003;49.518;11.280;2023-07-20T08:21:14;28.20;46.70
76211;DHT22;65003;49.518;11.280;2023-07-20T08:23:41;28.20;47.40
76211;DHT22;65003;49.518;11.280;2023-07-20T08:26:07;28.10;48.10
76211;DHT22;65003;49.518;11.280;2023-07-20T08:28:34;27.40;59.80
76211;DHT22;65003;49.518;11.280;2023-07-20T08:31:01;27.20;61.10
76211;DHT22;65003;49.518;11.280;2023-07-20T08:33:27;27.00;48.50
76211;DHT22;65003;49.518;11.280;2023-07-20T08:35:54;27.30;48.10
76211;DHT22;65003;49.518;11.280;2023-07-20T08:38:20;27.80;47.00
76211;DHT22;65003;49.518;11.280;2023-07-20T08:40:47;28.60;46.30
76211;DHT22;65003;49.518;11.280;2023-07-20T08:43:14;29.60;43.40
76211;DHT22;65003;49.518;11.280;2023-07-20T08:45:40;30.30;41.60
76211;DHT22;65003;49.518;11.280;2023-07-20T08:48:07;31.50;48.70
76211;DHT22;65003;49.518;11.280;2023-07-20T08:50:34;32.00;45.10
76211;DHT22;65003;49.518;11.280;2023-07-20T08:53:00;31.10;45.70
76211;DHT22;65003;49.518;11.280;2023-07-20T08:55:27;31.00;52.50
76211;DHT22;65003;49.518;11.280;2023-07-20T08:57:55;31.50;51.30
76211;DHT22;65003;49.518;11.280;2023-07-20T09:00:21;31.50;49.10
76211;DHT22;65003;49.518;11.280;2023-07-20T09:02:49;31.30;49.90
76211;DHT22;65003;49.518;11.280;2023-07-20T09:05:15;31.30;48.40
76211;DHT22;65003;49.518;11.280;2023-07-20T09:07:41;31.50;48.30
76211;DHT22;65003;49.518;11.280;2023-07-20T09:10:08;32.00;47.50
76211;DHT22;65003;49.518;11.280;2023-07-20T09:12:39;30.80;51.80
76211;DHT22;65003;49.518;11.280;2023-07-20T09:15:06;30.90;44.30
76211;DHT22;65003;49.518;11.280;2023-07-20T09:17:33;31.90;36.70
76211;DHT22;65003;49.518;11.280;2023-07-20T09:20:03;31.60;44.10
76211;DHT22;65003;49.518;11.280;2023-07-20T09:22:32;30.80;44.60
76211;DHT22;65003;49.518;11.280;2023-07-20T09:24:58;28.80;40.60
76211;DHT22;65003;49.518;11.280;2023-07-20T09:27:35;28.60;41.80
76211;DHT22;65003;49.518;11.280;2023-07-20T09:30:01;28.10;43.40
76211;DHT22;65003;49.518;11.280;2023-07-20T09:32:28;28.20;42.20
76211;DHT22;65003;49.518;11.280;2023-07-20T09:34:55;28.80;41.50
76211;DHT22;65003;49.518;11.280;2023-07-20T09:37:21;28.60;41.00
76211;DHT22;65003;49.518;11.280;2023-07-20T09:39:48;27.90;61.20
76211;DHT22;65003;49.518;11.280;2023-07-20T09:42:15;27.70;64.90
76211;DHT22;65003;49.518;11.280;2023-07-20T09:44:43;27.80;63.10
76211;DHT22;65003;49.518;11.280;2023-07-20T09:47:10;27.80;58.90
76211;DHT22;65003;49.518;11.280;2023-07-20T09:49:40;27.70;64.40
76211;DHT22;65003;49.518;11.280;2023-07-20T09:52:08;28.30;62.00
76211;DHT22;65003;49.518;11.280;2023-07-20T09:54:35;29.40;38.30
76211;DHT22;65003;49.518;11.280;2023-07-20T09:57:01;29.50;38.00
76211;DHT22;65003;49.518;11.280;2023-07-20T10:01:56;29.90;37.60
76211;DHT22;65003;49.518;11.280;2023-07-20T10:04:22;29.80;36.70
76211;DHT22;65003;49.518;11.280;2023-07-20T10:06:48;29.70;36.70
76211;DHT22;65003;49.518;11.280;2023-07-20T10:09:15;29.40;37.50
76211;DHT22;65003;49.518;11.280;2023-07-20T10:11:43;28.80;37.90
76211;DHT22;65003;49.518;11.280;2023-07-20T10:14:09;28.60;38.70
76211;DHT22;65003;49.518;11.280;2023-07-20T10:16:35;28.50;39.40
76211;DHT22;65003;49.518;11.280;2023-07-20T10:19:13;28.60;40.20
76211;DHT22;65003;49.518;11.280;2023-07-20T10:21:40;28.70;38.90
76211;DHT22;65003;49.518;11.280;2023-07-20T10:24:05;28.40;38.60
76211;DHT22;65003;49.518;11.280;2023-07-20T10:26:31;27.80;40.00
76211;DHT22;65003;49.518;11.280;2023-07-20T10:28:58;27.90;39.20
76211;DHT22;65003;49.518;11.280;2023-07-20T10:31:25;28.00;40.30
76211;DHT22;65003;49.518;11.280;2023-07-20T10:33:51;28.70;39.80
76211;DHT22;65003;49.518;11.280;2023-07-20T10:36:24;28.20;38.20
76211;DHT22;65003;49.518;11.280;2023-07-20T10:38:54;28.10;38.10
76211;DHT22;65003;49.518;11.280;2023-07-20T10:41:22;27.80;39.00
76211;DHT22;65003;49.518;11.280;2023-07-20T10:43:48;27.80;39.50
76211;DHT22;65003;49.518;11.280;2023-07-20T10:46:14;27.80;38.60
76211;DHT22;65003;49.518;11.280;2023-07-20T10:51:20;27.40;48.70
76211;DHT22;65003;49.518;11.280;2023-07-20T10:53:50;27.00;38.70
76211;DHT22;65003;49.518;11.280;2023-07-20T10:56:20;27.10;39.60
76211;DHT22;65003;49.518;11.280;2023-07-20T10:58:46;27.50;38.70
76211;DHT22;65003;49.518;11.280;2023-07-20T11:01:17;27.90;38.60
76211;DHT22;65003;49.518;11.280;2023-07-20T11:03:40;28.10;36.90
76211;DHT22;65003;49.518;11.280;2023-07-20T11:06:31;27.60;34.20
76211;DHT22;65003;49.518;11.280;2023-07-20T11:09:04;27.70;35.10
76211;DHT22;65003;49.518;11.280;2023-07-20T11:11:30;27.90;34.30
76211;DHT22;65003;49.518;11.280;2023-07-20T11:13:59;28.00;34.20
76211;DHT22;65003;49.518;11.280;2023-07-20T11:16:34;28.00;34.90
76211;DHT22;65003;49.518;11.280;2023-07-20T11:19:01;28.10;35.20
76211;DHT22;65003;49.518;11.280;2023-07-20T11:21:28;28.00;35.10
76211;DHT22;65003;49.518;11.280;2023-07-20T11:23:55;28.10;35.90
76211;DHT22;65003;49.518;11.280;2023-07-20T11:26:21;28.20;35.10
76211;DHT22;65003;49.518;11.280;2023-07-20T11:28:49;28.10;33.60
76211;DHT22;65003;49.518;11.280;2023-07-20T11:31:15;27.80;34.90
76211;DHT22;65003;49.518;11.280;2023-07-20T11:33:42;27.70;34.50
76211;DHT22;65003;49.518;11.280;2023-07-20T11:36:08;27.80;35.60
76211;DHT22;65003;49.518;11.280;2023-07-20T11:38:35;27.90;36.00
76211;DHT22;65003;49.518;11.280;2023-07-20T11:41:03;27.70;35.60
76211;DHT22;65003;49.518;11.280;2023-07-20T11:43:29;27.50;35.90
76211;DHT22;65003;49.518;11.280;2023-07-20T11:45:56;27.30;34.60
76211;DHT22;65003;49.518;11.280;2023-07-20T11:48:22;27.00;34.30
76211;DHT22;65003;49.518;11.280;2023-07-20T11:50:49;26.80;52.40
76211;DHT22;65003;49.518;11.280;2023-07-20T11:53:16;26.90;53.80
76211;DHT22;65003;49.518;11.280;2023-07-20T11:55:43;27.00;49.20
76211;DHT22;65003;49.518;11.280;2023-07-20T11:58:10;27.00;48.50
76211;DHT22;65003;49.518;11.280;2023-07-20T12:00:38;26.80;50.80
76211;DHT22;65003;49.518;11.280;2023-07-20T12:03:05;26.90;51.40
76211;DHT22;65003;49.518;11.280;2023-07-20T12:05:31;27.10;51.30
76211;DHT22;65003;49.518;11.280;2023-07-20T12:07:58;27.20;51.50
76211;DHT22;65003;49.518;11.280;2023-07-20T12:10:25;27.40;51.10
76211;DHT22;65003;49.518;11.280;2023-07-20T12:12:51;27.30;50.80
76211;DHT22;65003;49.518;11.280;2023-07-20T12:15:26;27.30;50.90
76211;DHT22;65003;49.518;11.280;2023-07-20T12:17:53;27.40;51.20
76211;DHT22;65003;49.518;11.280;2023-07-20T12:20:33;27.30;50.20
76211;DHT22;65003;49.518;11.280;2023-07-20T12:23:02;27.30;50.70
76211;DHT22;65003;49.518;11.280;2023-07-20T12:28:08;27.00;50.00
76211;DHT22;65003;49.518;11.280;2023-07-20T12:30:35;27.00;50.40
76211;DHT22;65003;49.518;11.280;2023-07-20T12:33:01;26.90;51.60
76211;DHT22;65003;49.518;11.280;2023-07-20T12:35:28;27.10;51.80
76211;DHT22;65003;49.518;11.280;2023-07-20T12:37:54;27.20;52.10
76211;DHT22;65003;49.518;11.280;2023-07-20T12:40:21;27.20;50.50
76211;DHT22;65003;49.518;11.280;2023-07-20T12:42:48;27.10;51.50
76211;DHT22;65003;49.518;11.280;2023-07-20T12:45:14;27.10;52.50
76211;DHT22;65003;49.518;11.280;2023-07-20T12:47:41;27.20;52.40
76211;DHT22;65003;49.518;11.280;2023-07-20T12:50:07;27.20;48.50
76211;DHT22;65003;49.518;11.280;2023-07-20T12:52:37;27.00;48.50
76211;DHT22;65003;49.518;11.280;2023-07-20T12:55:04;26.80;52.30
76211;DHT22;65003;49.518;11.280;2023-07-20T12:57:31;26.60;50.50
76211;DHT22;65003;49.518;11.280;2023-07-20T12:59:57;26.50;37.00
76211;DHT22;65003;49.518;11.280;2023-07-20T13:02:24;26.50;38.10
76211;DHT22;65003;49.518;11.280;2023-07-20T13:04:51;26.50;38.90
76211;DHT22;65003;49.518;11.280;2023-07-20T13:07:18;26.60;38.60
76211;DHT22;65003;49.518;11.280;2023-07-20T13:09:44;26.60;37.80
76211;DHT22;65003;49.518;11.280;2023-07-20T13:12:11;26.60;37.10
76211;DHT22;65003;49.518;11.280;2023-07-20T13:17:04;26.20;37.70
76211;DHT22;65003;49.518;11.280;2023-07-20T13:19:30;26.10;47.30
76211;DHT22;65003;49.518;11.280;2023-07-20T13:21:57;26.20;50.70
76211;DHT22;65003;49.518;11.280;2023-07-20T13:24:24;26.40;46.50
76211;DHT22;65003;49.518;11.280;2023-07-20T13:26:51;26.60;54.00
76211;DHT22;65003;49.518;11.280;2023-07-20T13:29:17;26.80;55.60
76211;DHT22;65003;49.518;11.280;2023-07-20T13:31:44;26.60;56.90
76211;DHT22;65003;49.518;11.280;2023-07-20T13:34:10;26.90;52.80
76211;DHT22;65003;49.518;11.280;2023-07-20T13:36:37;26.40;57.40
76211;DHT22;65003;49.518;11.280;2023-07-20T13:39:03;26.40;48.50
76211;DHT22;65003;49.518;11.280;2023-07-20T13:41:30;26.10;56.40
76211;DHT22;65003;49.518;11.280;2023-07-20T13:43:57;26.00;64.30
76211;DHT22;65003;49.518;11.280;2023-07-20T13:46:23;26.30;55.90
76211;DHT22;65003;49.518;11.280;2023-07-20T13:48:50;26.40;56.00
76211;DHT22;65003;49.518;11.280;2023-07-20T13:51:16;26.40;59.80
76211;DHT22;65003;49.518;11.280;2023-07-20T13:53:45;26.40;51.10
76211;DHT22;65003;49.518;11.280;2023-07-20T13:56:10;26.40;49.70
76211;DHT22;65003;49.518;11.280;2023-07-20T13:58:36;26.20;49.40
76211;DHT22;65003;49.518;11.280;2023-07-20T14:01:03;26.10;50.00
76211;DHT22;65003;49.518;11.280;2023-07-20T14:03:30;26.30;50.50
76211;DHT22;65003;49.518;11.280;2023-07-20T14:05:56;26.40;51.50
76211;DHT22;65003;49.518;11.280;2023-07-20T14:08:23;26.40;51.50
76211;DHT22;65003;49.518;11.280;2023-07-20T14:10:50;26.30;48.80
76211;DHT22;65003;49.518;11.280;2023-07-20T14:13:16;26.30;50.30
76211;DHT22;65003;49.518;11.280;2023-07-20T14:15:43;26.40;49.60
76211;DHT22;65003;49.518;11.280;2023-07-20T14:18:09;26.50;52.50
76211;DHT22;65003;49.518;11.280;2023-07-20T14:20:36;26.60;52.10
76211;DHT22;65003;49.518;11.280;2023-07-20T14:23:03;26.50;49.70
76211;DHT22;65003;49.518;11.280;2023-07-20T14:25:29;26.50;50.30
76211;DHT22;65003;49.518;11.280;2023-07-20T14:27:56;26.50;50.10
76211;DHT22;65003;49.518;11.280;2023-07-20T14:30:23;26.50;48.90
76211;DHT22;65003;49.518;11.280;2023-07-20T14:32:49;26.30;50.60
76211;DHT22;65003;49.518;11.280;2023-07-20T14:35:16;26.00;52.50
76211;DHT22;65003;49.518;11.280;2023-07-20T14:37:43;25.80;37.60
76211;DHT22;65003;49.518;11.280;2023-07-20T14:40:11;25.70;36.90
76211;DHT22;65003;49.518;11.280;2023-07-20T14:42:38;25.70;36.80
76211;DHT22;65003;49.518;11.280;2023-07-20T14:45:05;25.80;37.30
76211;DHT22;65003;49.518;11.280;2023-07-20T14:47:32;26.00;38.10
76211;DHT22;65003;49.518;11.280;2023-07-20T14:49:58;26.20;39.40
76211;DHT22;65003;49.518;11.280;2023-07-20T14:52:25;26.40;38.10
76211;DHT22;65003;49.518;11.280;2023-07-20T14:54:51;26.40;37.80
76211;DHT22;65003;49.518;11.280;2023-07-20T14:57:19;26.20;38.70
76211;DHT22;65003;49.518;11.280;2023-07-20T14:59:45;26.10;38.90
76211;DHT22;65003;49.518;11.280;2023-07-20T15:02:12;26.10;38.50
76211;DHT22;65003;49.518;11.280;2023-07-20T15:07:11;26.10;37.60
76211;DHT22;65003;49.518;11.280;2023-07-20T15:09:37;26.20;38.00
76211;DHT22;65003;49.518;11.280;2023-07-20T15:12:04;26.30;37.40
76211;DHT22;65003;49.518;11.280;2023-07-20T15:14:31;26.20;35.80
76211;DHT22;65003;49.518;11.280;2023-07-20T15:16:58;26.50;36.50
76211;DHT22;65003;49.518;11.280;2023-07-20T15:19:24;26.00;36.90
76211;DHT22;65003;49.518;11.280;2023-07-20T15:21:51;26.00;36.90
76211;DHT22;65003;49.518;11.280;2023-07-20T15:24:18;26.10;36.80
76211;DHT22;65003;49.518;11.280;2023-07-20T15:26:44;26.20;36.20
76211;DHT22;65003;49.518;11.280;2023-07-20T15:29:11;26.10;36.70
76211;DHT22;65003;49.518;11.280;2023-07-20T15:31:39;26.20;36.70
76211;DHT22;65003;49.518;11.280;2023-07-20T15:34:06;26.30;37.90